Wilson Algeciras — 9HA2471 — position and weather

sailwx.info

Track history (hours):
 
Tides and Currents Weather Stations Pressure Air Temp Water Temp Dewpoint Dewpoint Depression Visibility Wind Speed Wind Dir Waves Ship Positions

Wilson Algeciras

Last reported at 2016-Feb-04 22:11 UTC. Time now 2016-Feb-11 06:35 UTC.
Position N 37°48' E 020°16'.

Length 88 m; draft 3.3 m.

Type: Ship. MMSI: 248689000.

Date/timePositionNaut miles runAvg speedWind from/ knotsBaromVisibWave heightAir tempDewpointWater temp
2016-Feb-04 22:11N 37°48' E 020°16'6 9.5
2016-Feb-04 21:31N 37°52' E 020°23'19 9.9
2016-Feb-04 19:32N 37°60' E 020°45'9 9.1
2016-Feb-04 18:33N 38°06' E 020°53'1110.8
2016-Feb-04 17:32N 38°17' E 020°56'9 9.5
2016-Feb-04 16:33N 38°25' E 021°02'4 0.1
2016-Feb-03 10:11N 38°23' E 020°58'710.1
2016-Feb-03 09:33N 38°17' E 020°55'1110.3
2016-Feb-03 08:31N 38°06' E 020°54'238 9.5
2016-Feb-02 07:31N 37°53' E 015°52'9 9.5
2016-Feb-02 06:33N 37°55' E 015°41'20 9.1
2016-Feb-02 04:21N 38°15' E 015°38'6 6.1
2016-Feb-02 03:25N 38°19' E 015°33'8 9.8
2016-Feb-02 02:33N 38°20' E 015°22'10 9.8
2016-Feb-02 01:32N 38°20' E 015°09'10 9.9
2016-Feb-02 00:32N 38°19' E 014°57'40 9.9
2016-Feb-01 20:29N 38°19' E 014°06'9 9.8
2016-Feb-01 19:33N 38°19' E 013°54'10 9.6
2016-Feb-01 18:33N 38°19' E 013°42'10 9.5
2016-Feb-01 17:33N 38°19' E 013°30'10 9.8
2016-Feb-01 16:33N 38°18' E 013°17'10 9.8
2016-Feb-01 15:33N 38°18' E 013°05'9 9.3
2016-Feb-01 14:33N 38°18' E 012°53'10 9.3
2016-Feb-01 13:30N 38°17' E 012°41'  
2016-Jan-29 13:07N 36°21' W 002°18'711.5
2016-Jan-29 12:32N 36°20' W 002°26'13810.6
2016-Jan-28 23:33N 35°56' W 005°13'5 5.0
2016-Jan-28 22:33N 35°54' W 005°19'0 0.0
2016-Jan-28 21:33N 35°54' W 005°19'0 0.1
2016-Jan-28 20:32N 35°54' W 005°19'0 0.0
2016-Jan-28 19:32N 35°54' W 005°19'1 0.7
2016-Jan-28 18:33N 35°55' W 005°19'0 0.1
2016-Jan-28 17:32N 35°55' W 005°19'0 0.1
2016-Jan-28 16:33N 35°55' W 005°19'0 0.1
2016-Jan-28 15:33N 35°55' W 005°19'0 0.0
2016-Jan-28 14:29N 35°55' W 005°19'0 0.0
2016-Jan-28 13:32N 35°55' W 005°19'0 0.0
2016-Jan-28 12:30N 35°55' W 005°19'0 0.1
2016-Jan-28 11:32N 35°55' W 005°19'0 0.1
2016-Jan-28 10:34N 35°55' W 005°19'6 6.3
2016-Jan-28 09:33N 35°57' W 005°27'8810.8
2016-Jan-28 01:26N 36°07' W 007°14'5010.3
2016-Jan-27 20:33N 36°20' W 008°14'1010.1
2016-Jan-27 19:33N 36°23' W 008°27'1010.2
2016-Jan-27 18:33N 36°26' W 008°39'1010.0
2016-Jan-27 17:33N 36°28' W 008°51'10 9.9
2016-Jan-27 16:34N 36°31' W 009°02'10 9.9
2016-Jan-27 15:33N 36°34' W 009°14'10 9.6
2016-Jan-27 14:33N 36°39' W 009°24'10 9.3
2016-Jan-27 13:31N 36°46' W 009°32'1010.1
2016-Jan-27 12:31N 36°56' W 009°36'1010.2
2016-Jan-27 11:31N 37°06' W 009°39'1010.0
2016-Jan-27 10:31N 37°16' W 009°42'9 9.4
2016-Jan-27 09:32N 37°25' W 009°44'1010.2
2016-Jan-27 08:30N 37°35' W 009°47'1010.2
2016-Jan-27 07:31N 37°45' W 009°50'10 9.9
2016-Jan-27 06:31N 37°54' W 009°53'10 9.9
2016-Jan-27 05:31N 38°04' W 009°56'9 9.4
2016-Jan-27 04:33N 38°13' W 009°58'1010.0
2016-Jan-27 03:33N 38°22' W 010°01'10 9.5
2016-Jan-27 02:32N 38°32' W 010°04'10 9.8
2016-Jan-27 01:33N 38°41' W 010°07'10 9.5
2016-Jan-27 00:32N 38°51' W 010°07'9 9.4
2016-Jan-26 23:33N 39°00' W 010°07'10 9.6
2016-Jan-26 22:33N 39°10' W 010°07'1010.2
2016-Jan-26 21:33N 39°20' W 010°07'10 9.7
2016-Jan-26 20:33N 39°30' W 010°07'10 9.9
2016-Jan-26 19:33N 39°39' W 010°07'10 9.8
2016-Jan-26 18:33N 39°49' W 010°07'10 9.7
2016-Jan-26 17:33N 39°59' W 010°07'10 9.2
2016-Jan-26 16:31N 40°09' W 010°07'10 9.5
2016-Jan-26 15:31N 40°18' W 010°07'9 9.1
2016-Jan-26 14:31N 40°27' W 010°07'1110.0
2016-Jan-26 13:27N 40°38' W 010°07'8 9.1
2016-Jan-26 12:33N 40°46' W 010°07'9 9.4
2016-Jan-26 11:33N 40°55' W 010°07'10 9.5
2016-Jan-26 10:30N 41°05' W 010°07'9 9.7
2016-Jan-26 09:33N 41°15' W 010°07'11 9.2
2016-Jan-26 08:25N 41°25' W 010°07'8 9.4
2016-Jan-26 07:31N 41°34' W 010°07'9 9.4
2016-Jan-26 06:30N 41°43' W 010°07'8 8.7
2016-Jan-26 05:33N 41°51' W 010°07'  
Track history (hours):
 
Tides and Currents Weather Stations Pressure Air Temp Water Temp Dewpoint Dewpoint Depression Visibility Wind Speed Wind Dir Waves Ship Positions

Wilson Algeciras

Last reported at 2016-Feb-04 22:11 UTC. Time now 2016-Feb-11 06:35 UTC.
Position N 37°48' E 020°16'.

Length 88 m; draft 3.3 m.

Type: Ship. MMSI: 248689000.

Date/timePositionNaut miles runAvg speedWind from/ knotsBaromVisibWave heightAir tempDewpointWater temp
2016-Feb-04 22:11N 37°48' E 020°16'6 9.5
2016-Feb-04 21:31N 37°52' E 020°23'19 9.9
2016-Feb-04 19:32N 37°60' E 020°45'9 9.1
2016-Feb-04 18:33N 38°06' E 020°53'1110.8
2016-Feb-04 17:32N 38°17' E 020°56'9 9.5
2016-Feb-04 16:33N 38°25' E 021°02'4 0.1
2016-Feb-03 10:11N 38°23' E 020°58'710.1
2016-Feb-03 09:33N 38°17' E 020°55'1110.3
2016-Feb-03 08:31N 38°06' E 020°54'238 9.5
2016-Feb-02 07:31N 37°53' E 015°52'9 9.5
2016-Feb-02 06:33N 37°55' E 015°41'20 9.1
2016-Feb-02 04:21N 38°15' E 015°38'6 6.1
2016-Feb-02 03:25N 38°19' E 015°33'8 9.8
2016-Feb-02 02:33N 38°20' E 015°22'10 9.8
2016-Feb-02 01:32N 38°20' E 015°09'10 9.9
2016-Feb-02 00:32N 38°19' E 014°57'40 9.9
2016-Feb-01 20:29N 38°19' E 014°06'9 9.8
2016-Feb-01 19:33N 38°19' E 013°54'10 9.6
2016-Feb-01 18:33N 38°19' E 013°42'10 9.5
2016-Feb-01 17:33N 38°19' E 013°30'10 9.8
2016-Feb-01 16:33N 38°18' E 013°17'10 9.8
2016-Feb-01 15:33N 38°18' E 013°05'9 9.3
2016-Feb-01 14:33N 38°18' E 012°53'10 9.3
2016-Feb-01 13:30N 38°17' E 012°41'  
2016-Jan-29 13:07N 36°21' W 002°18'711.5
2016-Jan-29 12:32N 36°20' W 002°26'13810.6
2016-Jan-28 23:33N 35°56' W 005°13'5 5.0
2016-Jan-28 22:33N 35°54' W 005°19'0 0.0
2016-Jan-28 21:33N 35°54' W 005°19'0 0.1
2016-Jan-28 20:32N 35°54' W 005°19'0 0.0
2016-Jan-28 19:32N 35°54' W 005°19'1 0.7
2016-Jan-28 18:33N 35°55' W 005°19'0 0.1
2016-Jan-28 17:32N 35°55' W 005°19'0 0.1
2016-Jan-28 16:33N 35°55' W 005°19'0 0.1
2016-Jan-28 15:33N 35°55' W 005°19'0 0.0
2016-Jan-28 14:29N 35°55' W 005°19'0 0.0
2016-Jan-28 13:32N 35°55' W 005°19'0 0.0
2016-Jan-28 12:30N 35°55' W 005°19'0 0.1
2016-Jan-28 11:32N 35°55' W 005°19'0 0.1
2016-Jan-28 10:34N 35°55' W 005°19'6 6.3
2016-Jan-28 09:33N 35°57' W 005°27'8810.8
2016-Jan-28 01:26N 36°07' W 007°14'5010.3
2016-Jan-27 20:33N 36°20' W 008°14'1010.1
2016-Jan-27 19:33N 36°23' W 008°27'1010.2
2016-Jan-27 18:33N 36°26' W 008°39'1010.0
2016-Jan-27 17:33N 36°28' W 008°51'10 9.9
2016-Jan-27 16:34N 36°31' W 009°02'10 9.9
2016-Jan-27 15:33N 36°34' W 009°14'10 9.6
2016-Jan-27 14:33N 36°39' W 009°24'10 9.3
2016-Jan-27 13:31N 36°46' W 009°32'1010.1
2016-Jan-27 12:31N 36°56' W 009°36'1010.2
2016-Jan-27 11:31N 37°06' W 009°39'1010.0
2016-Jan-27 10:31N 37°16' W 009°42'9 9.4
2016-Jan-27 09:32N 37°25' W 009°44'1010.2
2016-Jan-27 08:30N 37°35' W 009°47'1010.2
2016-Jan-27 07:31N 37°45' W 009°50'10 9.9
2016-Jan-27 06:31N 37°54' W 009°53'10 9.9
2016-Jan-27 05:31N 38°04' W 009°56'9 9.4
2016-Jan-27 04:33N 38°13' W 009°58'1010.0
2016-Jan-27 03:33N 38°22' W 010°01'10 9.5
2016-Jan-27 02:32N 38°32' W 010°04'10 9.8
2016-Jan-27 01:33N 38°41' W 010°07'10 9.5
2016-Jan-27 00:32N 38°51' W 010°07'9 9.4
2016-Jan-26 23:33N 39°00' W 010°07'10 9.6
2016-Jan-26 22:33N 39°10' W 010°07'1010.2
2016-Jan-26 21:33N 39°20' W 010°07'10 9.7
2016-Jan-26 20:33N 39°30' W 010°07'10 9.9
2016-Jan-26 19:33N 39°39' W 010°07'10 9.8
2016-Jan-26 18:33N 39°49' W 010°07'10 9.7
2016-Jan-26 17:33N 39°59' W 010°07'10 9.2
2016-Jan-26 16:31N 40°09' W 010°07'10 9.5
2016-Jan-26 15:31N 40°18' W 010°07'9 9.1
2016-Jan-26 14:31N 40°27' W 010°07'1110.0
2016-Jan-26 13:27N 40°38' W 010°07'8 9.1
2016-Jan-26 12:33N 40°46' W 010°07'9 9.4
2016-Jan-26 11:33N 40°55' W 010°07'10 9.5
2016-Jan-26 10:30N 41°05' W 010°07'9 9.7
2016-Jan-26 09:33N 41°15' W 010°07'11 9.2
2016-Jan-26 08:25N 41°25' W 010°07'8 9.4
2016-Jan-26 07:31N 41°34' W 010°07'9 9.4
2016-Jan-26 06:30N 41°43' W 010°07'8 8.7
2016-Jan-26 05:33N 41°51' W 010°07'  

Dump ship's entire track history